Time;durP1;ratioP1;P1;durP2;ratioP2;P2;SDS_P1;SDS_P2;PMS_P1;PMS_P2;Temp;Humidity;BMP_temperature;BMP_pressure;BME280_temperature;BME280_humidity;BME280_pressure;Samples;Min_cycle;Max_cycle;Signal;HPM_P1;HPM_P2
2023/01/11 00:00:32;;;;;;;;;;;20.50;39.70;;;;;;5073467;28;20019;-63
2023/01/11 00:03:00;;;;;;;;;;;20.50;39.60;;;;;;5073373;28;19964;-63
2023/01/11 00:05:27;;;;;;;;;;;20.50;39.60;;;;;;5073196;28;19921;-63
2023/01/11 00:07:54;;;;;;;;;;;20.50;39.60;;;;;;5073420;28;19920;-62
2023/01/11 00:10:22;;;;;;;;;;;20.50;39.60;;;;;;5072899;28;20371;-63
2023/01/11 00:12:49;;;;;;;;;;;20.50;39.60;;;;;;5073566;28;19924;-62
2023/01/11 00:15:16;;;;;;;;;;;20.50;39.60;;;;;;5073688;28;19921;-62
2023/01/11 00:17:42;;;;;;;;;;;20.50;39.60;;;;;;5072804;28;20376;-62
2023/01/11 00:20:09;;;;;;;;;;;20.50;39.60;;;;;;5073149;28;20011;-62
2023/01/11 00:22:36;;;;;;;;;;;20.50;39.60;;;;;;5072987;28;20023;-62
2023/01/11 00:25:04;;;;;;;;;;;20.50;39.60;;;;;;5073065;28;19920;-63
2023/01/11 00:27:31;;;;;;;;;;;20.50;39.60;;;;;;5077267;28;19927;-63
2023/01/11 00:29:57;;;;;;;;;;;20.50;39.60;;;;;;5077738;28;19920;-62
2023/01/11 00:32:26;;;;;;;;;;;20.50;39.60;;;;;;5077571;28;19966;-63
2023/01/11 00:34:53;;;;;;;;;;;20.50;39.60;;;;;;5077181;28;20015;-63
2023/01/11 00:37:20;;;;;;;;;;;20.50;39.60;;;;;;5077325;28;19927;-62
2023/01/11 00:39:47;;;;;;;;;;;20.50;39.60;;;;;;5076918;28;20114;-63
2023/01/11 00:47:57;;;;;;;;;;;20.50;39.60;;;;;;5075114;28;19927;-62
2023/01/11 00:50:25;;;;;;;;;;;20.50;39.50;;;;;;5076996;28;20015;-65
2023/01/11 00:52:52;;;;;;;;;;;20.50;39.50;;;;;;5077354;28;19927;-62
2023/01/11 00:55:19;;;;;;;;;;;20.50;39.50;;;;;;5076597;28;19924;-62
2023/01/11 00:57:46;;;;;;;;;;;20.50;39.50;;;;;;5076588;28;19921;-62
2023/01/11 01:00:13;;;;;;;;;;;20.50;39.50;;;;;;5076358;28;19920;-62
2023/01/11 01:02:40;;;;;;;;;;;20.50;39.50;;;;;;5076514;28;20439;-63
2023/01/11 01:05:07;;;;;;;;;;;20.50;39.50;;;;;;5076453;28;19920;-62
2023/01/11 01:07:35;;;;;;;;;;;20.50;39.50;;;;;;5077096;28;19924;-63
2023/01/11 01:10:02;;;;;;;;;;;20.40;39.50;;;;;;5076108;28;19927;-62
2023/01/11 01:15:16;;;;;;;;;;;20.50;39.50;;;;;;5076712;28;19920;-62
2023/01/11 01:17:45;;;;;;;;;;;20.40;39.50;;;;;;5077085;28;19921;-62
2023/01/11 01:20:12;;;;;;;;;;;20.40;39.50;;;;;;5075425;28;19920;-62
2023/01/11 01:22:39;;;;;;;;;;;20.40;39.70;;;;;;5076405;28;20394;-63
2023/01/11 01:25:06;;;;;;;;;;;20.40;39.50;;;;;;5076193;28;19943;-62
2023/01/11 01:27:33;;;;;;;;;;;20.40;39.50;;;;;;5076354;28;19920;-63
2023/01/11 01:30:00;;;;;;;;;;;20.40;39.50;;;;;;5076575;28;20288;-63
2023/01/11 01:32:27;;;;;;;;;;;20.40;39.40;;;;;;5076432;28;20427;-62
2023/01/11 01:34:54;;;;;;;;;;;20.40;39.40;;;;;;5075377;28;20378;-62
2023/01/11 01:37:21;;;;;;;;;;;20.40;39.40;;;;;;5074893;28;19920;-62
2023/01/11 01:39:47;;;;;;;;;;;20.40;39.40;;;;;;5076377;28;19927;-63
2023/01/11 01:42:16;;;;;;;;;;;20.40;39.40;;;;;;5075700;28;19926;-62
2023/01/11 01:44:58;;;;;;;;;;;20.40;39.40;;;;;;5075912;28;20020;-63
2023/01/11 01:47:45;;;;;;;;;;;20.40;39.40;;;;;;5075285;28;19928;-62
2023/01/11 01:50:15;;;;;;;;;;;20.40;39.40;;;;;;5075899;28;19925;-62
2023/01/11 01:52:43;;;;;;;;;;;20.40;39.40;;;;;;5076064;28;19930;-63
2023/01/11 01:55:12;;;;;;;;;;;20.40;39.40;;;;;;5092082;28;20367;-62
2023/01/11 01:57:40;;;;;;;;;;;20.40;39.40;;;;;;5096058;28;20352;-63
2023/01/11 02:00:08;;;;;;;;;;;20.40;39.40;;;;;;5096072;28;19926;-62
2023/01/11 02:02:36;;;;;;;;;;;20.40;39.40;;;;;;5095777;28;19920;-62
2023/01/11 02:05:04;;;;;;;;;;;20.40;39.40;;;;;;5078170;28;19920;-62
2023/01/11 02:07:32;;;;;;;;;;;20.40;39.40;;;;;;5095870;28;19928;-62
2023/01/11 02:10:06;;;;;;;;;;;20.40;39.40;;;;;;5095313;28;19928;-62
2023/01/11 02:12:35;;;;;;;;;;;20.40;39.40;;;;;;5095994;28;19924;-62
2023/01/11 02:15:03;;;;;;;;;;;20.40;39.40;;;;;;5077988;28;19920;-62
2023/01/11 02:17:29;;;;;;;;;;;20.30;39.40;;;;;;5094733;28;19923;-62
2023/01/11 02:20:16;;;;;;;;;;;20.30;39.40;;;;;;5095386;28;19926;-63
2023/01/11 02:23:03;;;;;;;;;;;20.30;39.40;;;;;;5095533;28;19920;-63
2023/01/11 02:25:43;;;;;;;;;;;20.30;39.30;;;;;;5080366;28;19924;-63
2023/01/11 02:28:21;;;;;;;;;;;20.30;39.40;;;;;;5095814;28;19920;-63
2023/01/11 02:30:54;;;;;;;;;;;20.30;39.40;;;;;;5095614;28;19920;-63
2023/01/11 02:33:32;;;;;;;;;;;20.40;39.40;;;;;;5095488;28;19924;-62
2023/01/11 02:36:18;;;;;;;;;;;20.30;39.40;;;;;;5094723;28;20364;-62
2023/01/11 02:39:02;;;;;;;;;;;20.30;39.40;;;;;;5095285;28;19920;-63
2023/01/11 02:47:27;;;;;;;;;;;20.30;39.40;;;;;;5095121;28;20018;-62
2023/01/11 02:50:11;;;;;;;;;;;20.30;39.50;;;;;;5078249;28;19926;-63
2023/01/11 02:52:43;;;;;;;;;;;20.30;39.50;;;;;;5074909;28;20375;-62
2023/01/11 02:55:11;;;;;;;;;;;20.30;39.50;;;;;;5074674;28;20018;-62
2023/01/11 02:57:41;;;;;;;;;;;20.40;39.60;;;;;;5074932;28;20190;-62
2023/01/11 03:00:09;;;;;;;;;;;20.30;39.50;;;;;;5074598;28;20312;-63
2023/01/11 03:02:36;;;;;;;;;;;20.30;39.50;;;;;;5074567;28;19927;-62
2023/01/11 03:05:10;;;;;;;;;;;20.40;39.60;;;;;;5074518;28;19927;-62
2023/01/11 03:07:51;;;;;;;;;;;20.40;39.60;;;;;;5074285;28;20015;-62
2023/01/11 03:10:38;;;;;;;;;;;20.40;39.60;;;;;;5074317;28;19927;-62
2023/01/11 03:13:24;;;;;;;;;;;20.40;39.60;;;;;;5059831;28;20341;-62
2023/01/11 03:16:07;;;;;;;;;;;20.40;39.60;;;;;;5059046;28;19920;-63
2023/01/11 03:18:40;;;;;;;;;;;20.40;39.50;;;;;;5073532;28;19921;-62
2023/01/11 03:21:27;;;;;;;;;;;20.40;39.50;;;;;;5073311;28;19920;-62
2023/01/11 03:23:58;;;;;;;;;;;20.40;39.50;;;;;;5090416;28;20376;-63
2023/01/11 03:26:33;;;;;;;;;;;20.40;39.50;;;;;;5080650;28;19920;-62
2023/01/11 03:29:10;;;;;;;;;;;20.40;39.50;;;;;;5073889;28;19920;-62
2023/01/11 03:31:46;;;;;;;;;;;20.40;39.50;;;;;;5073714;28;19920;-62
2023/01/11 03:34:31;;;;;;;;;;;20.40;39.50;;;;;;5073728;28;20357;-62
2023/01/11 03:37:11;;;;;;;;;;;20.40;39.50;;;;;;5074054;28;20360;-63
2023/01/11 03:39:47;;;;;;;;;;;20.30;39.40;;;;;;5073634;28;19927;-63
2023/01/11 03:42:15;;;;;;;;;;;20.30;39.40;;;;;;5074093;28;19920;-63
2023/01/11 03:44:43;;;;;;;;;;;20.30;39.40;;;;;;5073817;28;19920;-62
2023/01/11 03:47:11;;;;;;;;;;;20.30;39.40;;;;;;5056284;28;20016;-62
2023/01/11 03:49:44;;;;;;;;;;;20.30;39.50;;;;;;5073750;28;20023;-62
2023/01/11 03:52:14;;;;;;;;;;;20.30;39.40;;;;;;5074041;28;19921;-63
2023/01/11 03:54:42;;;;;;;;;;;20.30;39.50;;;;;;5073894;28;19920;-62
2023/01/11 03:57:18;;;;;;;;;;;20.30;39.50;;;;;;5073377;28;19927;-63
2023/01/11 03:59:45;;;;;;;;;;;20.30;39.50;;;;;;5073155;28;19921;-62
2023/01/11 04:02:20;;;;;;;;;;;20.30;39.50;;;;;;5071461;28;20022;-63
2023/01/11 04:04:47;;;;;;;;;;;20.30;39.50;;;;;;5072029;28;19920;-63
2023/01/11 04:07:14;;;;;;;;;;;20.30;39.50;;;;;;5072756;28;19926;-63
2023/01/11 04:09:41;;;;;;;;;;;20.30;39.50;;;;;;5071222;28;19967;-63
2023/01/11 04:12:08;;;;;;;;;;;20.30;39.50;;;;;;5072799;28;19934;-63
2023/01/11 04:14:35;;;;;;;;;;;20.30;39.50;;;;;;5072360;28;20002;-63
2023/01/11 04:17:03;;;;;;;;;;;20.30;39.50;;;;;;5072676;28;20279;-63
2023/01/11 04:19:30;;;;;;;;;;;20.30;39.50;;;;;;5072650;28;19927;-62
2023/01/11 04:21:57;;;;;;;;;;;20.30;39.60;;;;;;5072051;28;20287;-63
2023/01/11 04:24:23;;;;;;;;;;;20.30;39.50;;;;;;5072196;28;19928;-63
2023/01/11 04:26:50;;;;;;;;;;;20.30;39.50;;;;;;5073060;28;19925;-63
2023/01/11 04:29:17;;;;;;;;;;;20.30;39.50;;;;;;5073275;28;20019;-63
2023/01/11 04:31:44;;;;;;;;;;;20.30;39.50;;;;;;5073466;28;19920;-62
2023/01/11 04:34:11;;;;;;;;;;;20.30;39.50;;;;;;5073188;28;19991;-62
2023/01/11 04:36:38;;;;;;;;;;;20.30;39.50;;;;;;5071853;28;19920;-62
2023/01/11 04:39:09;;;;;;;;;;;20.30;39.40;;;;;;5071671;28;20271;-63
2023/01/11 04:44:24;;;;;;;;;;;20.30;39.40;;;;;;5071524;28;19920;-62
2023/01/11 04:46:50;;;;;;;;;;;20.30;39.40;;;;;;5073126;28;19930;-62
2023/01/11 04:49:17;;;;;;;;;;;20.30;39.40;;;;;;5072883;28;19920;-63
2023/01/11 04:51:44;;;;;;;;;;;20.30;39.40;;;;;;5073254;28;20011;-62
2023/01/11 04:54:11;;;;;;;;;;;20.30;39.50;;;;;;5072581;28;19921;-63
2023/01/11 04:56:38;;;;;;;;;;;20.30;39.50;;;;;;5072394;28;19920;-62
2023/01/11 04:59:05;;;;;;;;;;;20.20;39.40;;;;;;5072959;28;20427;-63
2023/01/11 05:01:32;;;;;;;;;;;20.30;39.50;;;;;;5072817;28;19926;-62
2023/01/11 05:03:59;;;;;;;;;;;20.20;39.40;;;;;;5072879;28;20364;-62
2023/01/11 05:06:26;;;;;;;;;;;20.30;39.50;;;;;;5073177;28;20284;-62
2023/01/11 05:08:53;;;;;;;;;;;20.20;39.40;;;;;;5073324;28;19990;-62
2023/01/11 05:11:20;;;;;;;;;;;20.30;39.50;;;;;;5072913;28;19920;-63
2023/01/11 05:13:47;;;;;;;;;;;20.20;39.40;;;;;;5075873;28;19926;-62
2023/01/11 05:16:19;;;;;;;;;;;20.20;39.40;;;;;;5076495;28;19927;-63
2023/01/11 05:18:47;;;;;;;;;;;20.30;39.50;;;;;;5076567;28;19920;-62
2023/01/11 05:21:15;;;;;;;;;;;20.30;39.50;;;;;;5076279;28;20408;-63
2023/01/11 05:23:42;;;;;;;;;;;20.30;39.50;;;;;;5076738;28;19957;-62
2023/01/11 05:26:18;;;;;;;;;;;20.30;39.40;;;;;;5075613;28;19920;-63
2023/01/11 05:28:45;;;;;;;;;;;20.30;39.40;;;;;;5058261;28;20280;-62
2023/01/11 05:31:12;;;;;;;;;;;20.30;39.30;;;;;;5076590;28;19927;-63
2023/01/11 05:33:39;;;;;;;;;;;20.30;39.30;;;;;;5075827;28;19920;-63
2023/01/11 05:36:08;;;;;;;;;;;20.30;39.30;;;;;;5071269;28;20023;-62
2023/01/11 05:38:35;;;;;;;;;;;20.30;39.10;;;;;;5074848;28;19999;-63
2023/01/11 05:41:04;;;;;;;;;;;20.30;38.90;;;;;;5075565;28;19924;-62
2023/01/11 05:43:31;;;;;;;;;;;20.20;38.70;;;;;;5075071;28;19921;-63
2023/01/11 05:45:59;;;;;;;;;;;20.20;38.60;;;;;;5074762;28;19921;-63
2023/01/11 05:48:26;;;;;;;;;;;20.20;38.60;;;;;;5075967;28;19982;-62
2023/01/11 05:50:54;;;;;;;;;;;20.20;38.60;;;;;;5075063;28;19920;-62
2023/01/11 05:53:22;;;;;;;;;;;20.10;38.60;;;;;;5074913;28;19920;-63
2023/01/11 05:55:53;;;;;;;;;;;20.10;38.60;;;;;;5075453;28;20267;-63
2023/01/11 05:58:20;;;;;;;;;;;20.10;38.50;;;;;;5063909;28;19931;-63
2023/01/11 06:00:48;;;;;;;;;;;20.10;38.50;;;;;;5075118;28;19924;-62
2023/01/11 06:03:16;;;;;;;;;;;20.20;38.60;;;;;;5075617;28;19982;-64
2023/01/11 06:05:43;;;;;;;;;;;20.20;38.50;;;;;;5075275;28;20555;-63
2023/01/11 06:08:12;;;;;;;;;;;20.20;38.50;;;;;;5075430;28;19932;-63
2023/01/11 06:10:39;;;;;;;;;;;20.20;38.40;;;;;;5075096;28;20436;-63
2023/01/11 06:16:01;;;;;;;;;;;20.20;38.70;;;;;;5074842;28;19920;-63
2023/01/11 06:18:28;;;;;;;;;;;20.30;38.40;;;;;;5068582;28;19924;-63
2023/01/11 06:20:57;;;;;;;;;;;20.30;38.40;;;;;;5073580;28;19921;-63
2023/01/11 06:23:24;;;;;;;;;;;20.30;38.30;;;;;;5069470;28;19942;-63
2023/01/11 06:25:51;;;;;;;;;;;20.40;38.30;;;;;;5070819;28;19928;-63
2023/01/11 06:28:18;;;;;;;;;;;20.40;38.30;;;;;;5068701;28;19927;-66
2023/01/11 06:30:52;;;;;;;;;;;20.40;38.30;;;;;;5079236;28;19921;-65
2023/01/11 06:33:20;;;;;;;;;;;20.40;38.20;;;;;;5071772;28;20045;-63
2023/01/11 06:35:47;;;;;;;;;;;20.50;38.20;;;;;;5066014;28;20004;-64
2023/01/11 06:38:15;;;;;;;;;;;20.50;38.30;;;;;;5068823;28;19928;-64
2023/01/11 06:40:43;;;;;;;;;;;20.60;38.30;;;;;;5059507;28;19928;-63
2023/01/11 06:43:10;;;;;;;;;;;20.60;38.30;;;;;;5064807;28;19924;-63
2023/01/11 06:45:37;;;;;;;;;;;20.60;38.20;;;;;;5066637;28;19927;-63
2023/01/11 06:48:04;;;;;;;;;;;20.70;38.20;;;;;;5069352;28;19927;-67
2023/01/11 06:50:31;;;;;;;;;;;20.70;38.50;;;;;;5065846;28;20360;-68
2023/01/11 06:53:00;;;;;;;;;;;20.70;38.30;;;;;;5068538;28;19921;-67
2023/01/11 06:55:28;;;;;;;;;;;20.80;38.60;;;;;;5069445;28;19920;-78
2023/01/11 06:57:55;;;;;;;;;;;20.80;38.90;;;;;;5067962;28;20329;-74
2023/01/11 07:00:22;;;;;;;;;;;20.90;39.20;;;;;;5072236;28;20018;-71
2023/01/11 07:02:50;;;;;;;;;;;20.90;39.30;;;;;;5070165;28;20054;-74
2023/01/11 07:05:17;;;;;;;;;;;21.00;39.40;;;;;;5065305;28;20275;-71
2023/01/11 07:07:45;;;;;;;;;;;21.00;39.30;;;;;;5060581;28;19921;-69
2023/01/11 07:10:13;;;;;;;;;;;21.10;39.10;;;;;;5068918;28;19939;-70
2023/01/11 07:12:40;;;;;;;;;;;21.10;38.80;;;;;;5061858;28;20006;-71
2023/01/11 07:15:09;;;;;;;;;;;21.20;39.00;;;;;;5066483;28;19921;-73
2023/01/11 07:17:36;;;;;;;;;;;21.30;39.20;;;;;;5065043;28;20031;-72
2023/01/11 07:20:04;;;;;;;;;;;21.40;39.20;;;;;;5065802;28;19928;-71
2023/01/11 07:22:35;;;;;;;;;;;21.40;39.10;;;;;;5062037;28;20714;-69
2023/01/11 07:25:02;;;;;;;;;;;21.50;39.10;;;;;;5065416;28;19929;-72
2023/01/11 07:27:29;;;;;;;;;;;21.50;39.10;;;;;;5069328;28;20467;-72
2023/01/11 07:29:58;;;;;;;;;;;21.60;39.00;;;;;;5069366;28;20277;-70
2023/01/11 07:32:26;;;;;;;;;;;21.60;39.00;;;;;;5065628;28;19928;-69
2023/01/11 07:34:54;;;;;;;;;;;21.60;38.80;;;;;;5069147;28;20016;-68
2023/01/11 07:37:24;;;;;;;;;;;21.70;38.90;;;;;;5067432;28;20233;-72
2023/01/11 07:39:55;;;;;;;;;;;21.70;39.00;;;;;;5051375;28;19928;-73
2023/01/11 07:45:09;;;;;;;;;;;21.80;38.70;;;;;;5063618;28;20012;-69
2023/01/11 07:47:36;;;;;;;;;;;21.90;38.50;;;;;;5066130;28;20003;-71
2023/01/11 07:50:03;;;;;;;;;;;21.90;38.20;;;;;;5067901;28;19968;-70
2023/01/11 07:52:30;;;;;;;;;;;22.00;38.40;;;;;;5068202;28;20008;-71
2023/01/11 07:55:01;;;;;;;;;;;22.00;38.40;;;;;;5068404;28;19935;-69
2023/01/11 07:57:28;;;;;;;;;;;22.00;38.30;;;;;;5067044;28;20419;-75
2023/01/11 07:59:55;;;;;;;;;;;22.10;38.30;;;;;;5064870;28;19928;-70
2023/01/11 08:02:23;;;;;;;;;;;22.10;38.20;;;;;;5068501;28;19928;-74
2023/01/11 08:04:50;;;;;;;;;;;22.20;38.40;;;;;;5068830;28;19973;-74
2023/01/11 08:07:18;;;;;;;;;;;22.20;38.20;;;;;;5061701;28;20009;-71
2023/01/11 08:09:45;;;;;;;;;;;22.20;38.20;;;;;;5061205;28;20427;-69
2023/01/11 08:14:59;;;;;;;;;;;22.30;38.00;;;;;;5062888;28;20299;-71
2023/01/11 08:17:26;;;;;;;;;;;22.30;38.00;;;;;;5062835;28;19928;-74
2023/01/11 08:19:56;;;;;;;;;;;22.30;38.40;;;;;;5065940;28;19975;-70
2023/01/11 08:22:23;;;;;;;;;;;22.40;38.90;;;;;;5059908;28;19982;-73
2023/01/11 08:24:50;;;;;;;;;;;22.40;38.90;;;;;;5065570;28;20022;-79
2023/01/11 08:27:17;;;;;;;;;;;22.50;39.00;;;;;;5065796;28;19995;-78
2023/01/11 08:29:44;;;;;;;;;;;22.50;39.30;;;;;;5066969;28;20019;-70
2023/01/11 08:32:12;;;;;;;;;;;22.60;39.40;;;;;;5044780;28;19928;-71
2023/01/11 08:34:39;;;;;;;;;;;22.60;39.10;;;;;;5066322;28;19924;-73
2023/01/11 08:37:06;;;;;;;;;;;22.60;38.80;;;;;;5065222;28;19928;-70
2023/01/11 08:39:33;;;;;;;;;;;22.60;38.60;;;;;;5064151;28;19931;-72
2023/01/11 08:42:02;;;;;;;;;;;22.60;38.30;;;;;;5066231;28;20295;-72
2023/01/11 08:44:29;;;;;;;;;;;22.70;38.00;;;;;;5063608;28;20284;-69
2023/01/11 08:47:01;;;;;;;;;;;22.70;37.90;;;;;;5064002;28;19982;-70
2023/01/11 08:49:29;;;;;;;;;;;22.70;37.70;;;;;;5066661;28;19928;-68
2023/01/11 08:51:56;;;;;;;;;;;22.70;37.70;;;;;;5067439;28;20287;-72
2023/01/11 08:54:23;;;;;;;;;;;22.70;37.70;;;;;;5067654;28;20022;-69
2023/01/11 08:56:50;;;;;;;;;;;22.80;37.60;;;;;;5066866;28;19964;-69
2023/01/11 08:59:18;;;;;;;;;;;22.80;37.70;;;;;;5069977;28;19928;-69
2023/01/11 09:01:46;;;;;;;;;;;22.80;37.60;;;;;;5068339;28;19964;-73
2023/01/11 09:04:13;;;;;;;;;;;22.80;37.30;;;;;;5066490;28;19924;-70
2023/01/11 09:06:51;;;;;;;;;;;22.90;36.90;;;;;;5067532;28;19936;-69
2023/01/11 09:09:18;;;;;;;;;;;22.90;36.50;;;;;;5070229;28;20402;-69
2023/01/11 09:11:55;;;;;;;;;;;22.90;36.40;;;;;;5066697;28;20376;-71
2023/01/11 09:14:23;;;;;;;;;;;22.90;36.30;;;;;;5067278;28;20307;-69
2023/01/11 09:16:51;;;;;;;;;;;22.90;36.20;;;;;;5069857;28;19948;-68
2023/01/11 09:19:18;;;;;;;;;;;23.00;36.10;;;;;;5069793;28;20027;-69
2023/01/11 09:21:45;;;;;;;;;;;23.00;36.00;;;;;;5069102;28;19956;-68
2023/01/11 09:24:12;;;;;;;;;;;23.00;35.90;;;;;;5068110;28;19976;-69
2023/01/11 09:26:42;;;;;;;;;;;23.00;35.80;;;;;;5070043;28;20021;-68
2023/01/11 09:29:09;;;;;;;;;;;23.10;35.70;;;;;;5068620;28;19931;-68
2023/01/11 09:31:37;;;;;;;;;;;23.10;35.60;;;;;;5070097;28;19925;-69
2023/01/11 09:34:05;;;;;;;;;;;23.10;35.50;;;;;;5069321;28;19935;-68
2023/01/11 09:36:34;;;;;;;;;;;23.10;35.40;;;;;;5069003;28;19929;-69
2023/01/11 09:39:06;;;;;;;;;;;23.20;34.70;;;;;;5067747;28;19951;-69
2023/01/11 09:41:55;;;;;;;;;;;23.20;35.10;;;;;;5068027;28;20334;-68
2023/01/11 09:44:25;;;;;;;;;;;23.10;35.20;;;;;;5070476;28;19928;-68
2023/01/11 09:46:59;;;;;;;;;;;23.20;35.40;;;;;;5065757;28;20502;-70
2023/01/11 09:49:28;;;;;;;;;;;23.20;35.40;;;;;;5067641;28;19966;-64
2023/01/11 09:52:04;;;;;;;;;;;23.20;35.30;;;;;;5068761;28;19920;-68
2023/01/11 09:54:31;;;;;;;;;;;23.20;35.30;;;;;;5067802;28;19927;-69
2023/01/11 09:57:09;;;;;;;;;;;23.20;35.30;;;;;;5065736;28;19924;-69
2023/01/11 09:59:47;;;;;;;;;;;23.20;35.20;;;;;;5067672;28;19982;-69
2023/01/11 10:02:34;;;;;;;;;;;23.20;35.20;;;;;;5065351;28;19951;-67
2023/01/11 10:05:17;;;;;;;;;;;23.20;35.10;;;;;;5068707;28;20299;-69
2023/01/11 10:08:00;;;;;;;;;;;23.30;35.20;;;;;;5071406;28;19920;-67
2023/01/11 10:10:53;;;;;;;;;;;23.30;35.10;;;;;;5070362;28;19920;-68
2023/01/11 10:13:52;;;;;;;;;;;23.30;35.10;;;;;;5056785;28;19928;-68
2023/01/11 10:16:33;;;;;;;;;;;23.30;35.10;;;;;;5068725;28;19928;-68
2023/01/11 10:19:22;;;;;;;;;;;23.30;35.10;;;;;;5067648;28;20289;-67
2023/01/11 10:22:17;;;;;;;;;;;23.30;35.00;;;;;;5068247;28;19928;-69
2023/01/11 10:24:47;;;;;;;;;;;23.30;35.00;;;;;;5068187;28;20279;-69
2023/01/11 10:27:26;;;;;;;;;;;23.30;35.00;;;;;;5067339;28;19932;-68
2023/01/11 10:33:00;;;;;;;;;;;23.30;34.80;;;;;;5066717;28;19971;-70
2023/01/11 10:36:01;;;;;;;;;;;23.30;34.70;;;;;;5064422;28;20015;-69
2023/01/11 10:38:58;;;;;;;;;;;23.40;34.70;;;;;;5068209;28;19982;-69
2023/01/11 10:41:32;;;;;;;;;;;23.40;34.60;;;;;;5068089;28;19928;-70
2023/01/11 10:44:11;;;;;;;;;;;23.40;34.60;;;;;;5048809;28;20961;-70
2023/01/11 10:46:43;;;;;;;;;;;23.40;34.50;;;;;;5062745;28;19979;-69
2023/01/11 10:49:27;;;;;;;;;;;23.40;34.40;;;;;;5069829;28;20358;-68
2023/01/11 10:51:57;;;;;;;;;;;23.40;34.50;;;;;;5068932;28;20307;-68
2023/01/11 10:54:28;;;;;;;;;;;23.50;34.50;;;;;;5067419;28;19928;-68
2023/01/11 10:57:07;;;;;;;;;;;23.50;34.50;;;;;;5065695;28;19924;-70
2023/01/11 10:59:45;;;;;;;;;;;23.50;34.50;;;;;;5067058;28;19990;-68
2023/01/11 11:02:32;;;;;;;;;;;23.40;34.40;;;;;;5064932;28;20027;-69
2023/01/11 11:05:14;;;;;;;;;;;23.50;34.50;;;;;;5067415;28;19939;-66
2023/01/11 11:07:51;;;;;;;;;;;23.50;34.50;;;;;;5070059;28;19928;-68
2023/01/11 11:10:33;;;;;;;;;;;23.50;34.60;;;;;;5067739;28;20015;-68
2023/01/11 11:13:09;;;;;;;;;;;23.50;34.60;;;;;;5069825;28;20394;-69
2023/01/11 11:15:39;;;;;;;;;;;23.50;34.40;;;;;;5069643;28;20460;-68
2023/01/11 11:18:07;;;;;;;;;;;23.50;34.30;;;;;;5067897;28;20390;-68
2023/01/11 11:20:34;;;;;;;;;;;23.60;34.40;;;;;;5065961;28;19967;-69
2023/01/11 11:23:01;;;;;;;;;;;23.50;34.40;;;;;;5067620;28;19928;-70
2023/01/11 11:25:30;;;;;;;;;;;23.50;34.50;;;;;;5069761;28;20528;-69
2023/01/11 11:28:00;;;;;;;;;;;23.50;34.50;;;;;;5067975;28;19934;-69
2023/01/11 11:30:29;;;;;;;;;;;23.50;34.50;;;;;;5068344;28;19920;-71
2023/01/11 11:32:59;;;;;;;;;;;23.50;34.60;;;;;;5066878;28;19930;-71
2023/01/11 11:35:31;;;;;;;;;;;23.50;34.50;;;;;;5066433;28;19974;-69
2023/01/11 11:37:58;;;;;;;;;;;23.50;34.40;;;;;;5064863;28;20015;-69
2023/01/11 11:40:35;;;;;;;;;;;23.50;34.30;;;;;;5061933;28;19952;-69
2023/01/11 11:43:20;;;;;;;;;;;23.50;34.20;;;;;;5068069;28;19947;-67
2023/01/11 11:45:52;;;;;;;;;;;23.50;34.10;;;;;;5065181;28;19954;-71
2023/01/11 11:48:20;;;;;;;;;;;23.60;34.10;;;;;;5065873;28;19924;-70
2023/01/11 11:50:49;;;;;;;;;;;23.60;34.00;;;;;;5067387;28;20007;-71
2023/01/11 11:53:25;;;;;;;;;;;23.60;34.00;;;;;;5067200;28;19924;-72
2023/01/11 11:55:53;;;;;;;;;;;23.60;33.90;;;;;;5068737;28;20463;-73
2023/01/11 11:58:21;;;;;;;;;;;23.60;33.90;;;;;;5061720;28;20014;-71
2023/01/11 12:00:50;;;;;;;;;;;23.60;33.80;;;;;;5065946;28;20291;-74
2023/01/11 12:03:24;;;;;;;;;;;23.70;33.90;;;;;;5062379;28;20400;-73
2023/01/11 12:06:00;;;;;;;;;;;23.70;34.00;;;;;;5060191;28;19928;-74
2023/01/11 12:08:28;;;;;;;;;;;23.70;33.90;;;;;;5064720;28;20287;-72
2023/01/11 12:10:57;;;;;;;;;;;23.70;33.90;;;;;;5064362;28;20035;-72
2023/01/11 12:13:29;;;;;;;;;;;23.70;33.90;;;;;;5066259;28;20387;-75
2023/01/11 12:15:57;;;;;;;;;;;23.70;33.80;;;;;;5065478;28;19968;-67
2023/01/11 12:18:39;;;;;;;;;;;23.70;33.80;;;;;;5061570;28;20419;-69
2023/01/11 12:21:21;;;;;;;;;;;23.70;33.70;;;;;;5047579;28;19930;-70
2023/01/11 12:24:06;;;;;;;;;;;23.80;33.70;;;;;;5056377;28;20315;-70
2023/01/11 12:26:42;;;;;;;;;;;23.70;33.60;;;;;;5069286;28;20430;-73
2023/01/11 12:29:17;;;;;;;;;;;23.70;33.70;;;;;;5051741;28;19973;-70
2023/01/11 12:31:53;;;;;;;;;;;23.70;34.00;;;;;;5068599;28;19960;-69
2023/01/11 12:34:40;;;;;;;;;;;23.80;34.20;;;;;;5073113;28;19926;-70
2023/01/11 12:37:27;;;;;;;;;;;23.80;34.90;;;;;;5070487;28;19993;-71
2023/01/11 12:39:56;;;;;;;;;;;23.80;34.60;;;;;;5071693;28;20292;-67
2023/01/11 12:42:44;;;;;;;;;;;23.80;34.70;;;;;;5071257;28;19970;-70
2023/01/11 12:45:31;;;;;;;;;;;23.80;34.80;;;;;;5055234;28;20372;-69
2023/01/11 12:48:06;;;;;;;;;;;23.90;34.60;;;;;;5056897;28;19928;-69
2023/01/11 12:50:42;;;;;;;;;;;23.90;34.20;;;;;;5072044;28;20098;-69
2023/01/11 12:53:16;;;;;;;;;;;23.90;34.60;;;;;;5070007;28;19928;-69
2023/01/11 12:56:03;;;;;;;;;;;23.90;33.90;;;;;;5066099;28;19928;-68
2023/01/11 12:58:35;;;;;;;;;;;23.90;33.70;;;;;;5052400;28;20277;-70
2023/01/11 13:01:11;;;;;;;;;;;23.90;33.70;;;;;;5069107;28;19920;-68
2023/01/11 13:03:59;;;;;;;;;;;23.90;33.60;;;;;;5071175;28;19979;-69
2023/01/11 13:06:34;;;;;;;;;;;23.80;33.40;;;;;;5069934;28;20573;-69
2023/01/11 13:09:17;;;;;;;;;;;23.90;33.50;;;;;;5069317;28;19924;-66
2023/01/11 13:11:52;;;;;;;;;;;23.90;33.40;;;;;;5070523;28;19924;-68
2023/01/11 13:14:39;;;;;;;;;;;23.90;33.50;;;;;;5068125;28;20968;-70
2023/01/11 13:17:19;;;;;;;;;;;23.90;33.40;;;;;;5069545;28;19924;-71
2023/01/11 13:19:54;;;;;;;;;;;23.90;33.40;;;;;;5049144;28;19928;-69
2023/01/11 13:22:28;;;;;;;;;;;23.90;33.30;;;;;;5066931;28;19934;-69
2023/01/11 13:25:04;;;;;;;;;;;23.90;33.30;;;;;;5072458;28;19924;-70
2023/01/11 13:27:32;;;;;;;;;;;23.90;33.10;;;;;;5070336;28;19924;-72
2023/01/11 13:30:00;;;;;;;;;;;23.90;33.10;;;;;;5069644;28;19975;-64
2023/01/11 13:32:31;;;;;;;;;;;23.90;33.00;;;;;;5070216;28;19928;-63
2023/01/11 13:35:12;;;;;;;;;;;24.00;33.00;;;;;;5064957;28;19981;-64
2023/01/11 13:37:41;;;;;;;;;;;24.00;33.00;;;;;;5063976;28;20015;-63
2023/01/11 13:40:28;;;;;;;;;;;24.00;33.00;;;;;;5066043;28;19924;-64
2023/01/11 13:42:58;;;;;;;;;;;24.00;33.00;;;;;;5050912;28;19963;-65
2023/01/11 13:45:36;;;;;;;;;;;24.00;32.90;;;;;;5069347;28;20367;-64
2023/01/11 13:48:20;;;;;;;;;;;24.00;32.90;;;;;;5069923;28;20454;-64
2023/01/11 13:50:54;;;;;;;;;;;24.00;32.90;;;;;;5067800;28;19920;-66
2023/01/11 13:53:26;;;;;;;;;;;24.00;32.80;;;;;;5059720;28;19928;-66
2023/01/11 13:55:57;;;;;;;;;;;23.90;32.60;;;;;;5065190;28;19928;-66
2023/01/11 13:58:34;;;;;;;;;;;24.00;32.70;;;;;;5067193;28;20023;-63
2023/01/11 14:01:07;;;;;;;;;;;24.00;32.70;;;;;;5064917;28;19985;-62
2023/01/11 14:03:38;;;;;;;;;;;24.00;32.60;;;;;;5066587;28;20437;-63
2023/01/11 14:06:15;;;;;;;;;;;23.90;32.60;;;;;;5062604;28;19920;-68
2023/01/11 14:09:02;;;;;;;;;;;23.90;32.60;;;;;;5064549;28;19924;-62
2023/01/11 14:11:43;;;;;;;;;;;23.90;32.80;;;;;;5044529;28;20028;-62
2023/01/11 14:14:17;;;;;;;;;;;23.90;33.10;;;;;;5067915;28;19925;-66
2023/01/11 14:17:03;;;;;;;;;;;23.90;33.50;;;;;;5067945;28;19958;-66
2023/01/11 14:19:50;;;;;;;;;;;23.90;33.60;;;;;;5064597;28;20361;-65
2023/01/11 14:22:26;;;;;;;;;;;23.90;33.60;;;;;;5052991;28;19928;-65
2023/01/11 14:24:59;;;;;;;;;;;23.90;33.40;;;;;;5049662;28;19990;-64
2023/01/11 14:27:45;;;;;;;;;;;23.90;33.20;;;;;;5066907;28;20616;-63
2023/01/11 14:30:22;;;;;;;;;;;23.90;33.20;;;;;;5066850;28;19924;-64
2023/01/11 14:33:00;;;;;;;;;;;23.90;33.30;;;;;;5068502;28;20012;-63
2023/01/11 14:35:46;;;;;;;;;;;23.90;33.50;;;;;;5069372;28;19932;-66
2023/01/11 14:38:29;;;;;;;;;;;23.90;33.80;;;;;;5068555;28;19924;-67
2023/01/11 14:41:02;;;;;;;;;;;23.90;34.20;;;;;;5065231;28;19981;-64
2023/01/11 14:43:49;;;;;;;;;;;23.90;34.60;;;;;;5065704;28;20006;-65
2023/01/11 14:46:36;;;;;;;;;;;23.90;34.80;;;;;;5063875;28;19928;-68
2023/01/11 14:49:11;;;;;;;;;;;23.90;34.60;;;;;;5064860;28;19982;-65
2023/01/11 14:51:58;;;;;;;;;;;23.90;34.30;;;;;;5070463;28;19947;-67
2023/01/11 14:54:27;;;;;;;;;;;23.90;34.10;;;;;;5063605;28;19927;-68
2023/01/11 14:56:55;;;;;;;;;;;23.90;34.00;;;;;;5064468;28;20378;-66
2023/01/11 14:59:24;;;;;;;;;;;23.90;34.00;;;;;;5067967;28;19932;-66
2023/01/11 15:02:06;;;;;;;;;;;23.90;34.20;;;;;;5060259;28;19936;-66
2023/01/11 15:04:35;;;;;;;;;;;23.80;34.20;;;;;;5069336;28;20235;-65
2023/01/11 15:07:22;;;;;;;;;;;23.90;34.40;;;;;;5067704;28;19982;-65
2023/01/11 15:09:52;;;;;;;;;;;23.90;34.20;;;;;;5063983;28;19938;-63
2023/01/11 15:12:20;;;;;;;;;;;23.90;34.20;;;;;;5067775;28;20910;-64